Rachel, Nevada Weather observations

Data are for observation ending at time listed.
 Day   Time    Ave.   Ave.  Ave.  Vector   Max.   Stn.    Total    Solar   Ave.  
  of    of     Air    Rel.  Wind   Wind    Wind   Baro.  Precip.   Rad.    Soil  
Year   Day     Temp.  Hum.  Speed  Dir.    Gust   Pres.                    Temp. 
2026   (PST)    F      %     mph   deg.    mph     mb.     in.     W/m2     F   
------------------------------------------------------------------------------
 127   12:20   80.7    11    3.6   304     12.6   853.7    0.00     751    74.6
 127   12:30   80.1    11    5.8   254     13.4   854.1    0.00     735    74.7
 127   12:40   79.8    11    5.0   259      9.1   854.0    0.00     711    74.9
 127   12:50   80.4    11    2.8   310     10.2   853.5    0.00     713    74.7
 127   13:00   80.3    10    3.3    48     10.3   853.0    0.00     722    74.4
 127   13:10   81.3    10    4.5    34     11.1   853.4    0.00     711    74.5
 127   13:20   81.9    10    4.7   167     10.6   852.9    0.00     696    74.4
 127   13:30   81.3    11    7.0   281     18.5   853.2    0.00     681    74.1
 127   13:40   82.6    10   12.9   276     21.5   853.3    0.00     669    74.3
 127   13:50   82.1    11    5.6   291     14.7   853.3    0.00     657    74.0
 127   14:00   81.8    10    5.6   193     13.5   853.0    0.00     641    74.0
 127   14:10   82.9    10    8.2   232     16.6   852.9    0.00     629    73.4
 127   14:20   83.8     9    8.6   265     20.0   852.7    0.00     608    73.7
 127   14:30   83.5     9   11.3   306     20.9   852.7    0.00     587    73.5
 127   14:40   83.9     9   10.6   290     18.3   852.4    0.00     566    73.2
 127   14:50   84.2     9   13.1   300     25.9   851.8    0.00     545    73.4
 127   15:00   83.2     9    7.4   290     16.3   851.7    0.00     524    73.1
 127   15:10   84.0     9   11.3   278     19.8   851.6    0.00     503    73.1
 127   15:20   84.3     8   10.4   245     19.6   851.5    0.00     481    73.2
 127   15:30   84.3     8   15.8   282     27.0   851.4    0.00     469    73.1
 127   15:40   84.3     8   15.0   284     24.0   851.4    0.00     454    73.2
 127   15:50   84.3     8   16.2   318     26.6   851.4    0.00     419    73.0
 127   16:00   83.6     8   14.3   302     22.2   851.5    0.00     409    73.1
 127   16:10   84.1     8   13.7   286     21.9   851.5    0.00     381    73.2
 127   16:20   84.2     8   10.2   279     19.7   851.4    0.00     360    73.0
 127   16:30   83.9     8   16.2   302     23.6   851.3    0.00     337    72.8
 127   16:40   83.2     8   11.8   299     17.9   851.4    0.00     308    73.0
 127   16:50   83.4     8   12.7   294     19.7   851.3    0.00     269    72.9
 127   17:00   83.1     8   14.7   306     21.9   851.3    0.00     231    72.9
 127   17:10   82.8     8   15.3   306     20.0   851.3    0.00     200    72.9
 127   17:20   82.1     8   13.8   306     20.6   851.2    0.00     173    72.9
 127   17:30   82.1     9    8.9   288     15.0   851.1    0.00     147    72.6
 127   17:40   81.9     9   10.0   297     14.8   851.0    0.00     119    72.4
 127   17:50   80.8    10    9.9   284     15.1   851.0    0.00      84    72.7
 127   18:00   80.4    10    8.8   279     13.1   850.9    0.00      64    72.5
 127   18:10   80.3    10    7.7   279     12.1   850.9    0.00      50    72.8
 127   18:20   79.2    11    8.3   289     15.6   850.9    0.00      31    72.3
 127   18:30   77.8    12    7.8   283     11.0   850.9    0.00      14    72.4
 127   18:40   75.7    12    6.9   273     10.4   850.8    0.00       7    72.4
 127   18:50   73.4    13    7.3   265      9.3   850.6    0.00       3    71.9
 127   19:00   73.3    12    7.5   246      9.7   850.3    0.00       2    72.0
 127   19:10   72.1    12    7.0   226      9.5   850.1    0.00       0    71.7
 127   19:20   71.3    12    7.5   228     10.1   850.0    0.00       0    72.4
 127   19:30   70.9    13    7.9   236     11.3   850.0    0.00       0    72.2
 127   19:40   71.0    13    8.5   244     12.5   850.1    0.00       0    71.3
 127   19:50   71.7    12    8.2   250     12.1   850.1    0.00       0    71.2
 127   20:00   70.5    13    7.2   249     11.3   850.2    0.00       0    71.4
 127   20:10   69.9    13    7.1   242     10.9   850.3    0.00       0    70.9
 127   20:20   69.0    13    7.1   242     10.2   850.3    0.00       0    70.6
 127   20:30   68.6    14    7.5   237     10.3   850.3    0.00       0    70.7
 127   20:40   68.0    16    7.5   237     10.4   850.2    0.00       0    70.6
 127   20:50   68.5    14    8.0   239     12.3   850.1    0.00       0    70.2
 127   21:00   69.2    14    7.7   252     11.9   850.1    0.00       0    70.4
 127   21:10   68.5    14    2.8   294      7.4   850.3    0.00       0    70.1
 127   21:20   67.6    15    1.9   181      4.3   850.3    0.00       0    69.9
 127   21:30   68.1    15    3.8   113      7.6   850.3    0.00       0    69.4
 127   21:40   67.2    16    3.3   144      8.2   850.3    0.00       0    69.6
 127   21:50   66.8    16    4.6   123      7.6   850.3    0.00       0    69.3
 127   22:00   64.5    17    4.4   114      6.4   850.4    0.00       0    69.3
 127   22:10   65.9    16    2.1   147      4.7   850.3    0.00       0    69.0
 127   22:20   67.4    16    1.4    78      7.0   850.3    0.00       0    68.8
 127   22:30   66.2    17    4.3   103      6.0   850.3    0.00       0    68.9
 127   22:40   65.5    17    4.1   165      5.9   850.4    0.00       0    68.5
 127   22:50   62.2    19    5.9   224     10.0   850.5    0.00       0    68.4
 127   23:00   61.4    22    5.9   225      8.1   850.5    0.00       0    68.1
 127   23:10   61.1    20    6.7   213      7.9   850.5    0.00       0    68.1
 127   23:20   59.3    22    6.2   199      7.0   850.4    0.00       0    67.7
 127   23:30   61.4    20    4.9   201      6.7   850.4    0.00       0    67.9
 127   23:40   59.2    22    4.3   182      5.3   850.4    0.00       0    67.6
 127   23:50   56.6    24    5.1   171      6.7   850.4    0.00       0    67.4
 128    0:00   55.2    25    1.2   168      2.9   850.3    0.00       0    67.3
 128    0:10   55.4    25    1.5   120      3.1   850.4    0.00       0    67.1
 128    0:20   55.6    25    1.6   157      2.2   850.6    0.00       0    66.9
 128    0:30   54.6    25    1.0   105      2.4   850.4    0.00       0    66.9
 128    0:40   54.3    25    1.5   183      2.9   850.2    0.00       0    66.7
 128    0:50   53.2    26    2.2   168      3.7   849.9    0.00       0    66.3
 128    1:00   53.1    27    2.2   191      4.1   850.3    0.00       0    66.5
 128    1:10   53.0    27    3.8   217      5.4   850.1    0.00       0    66.1
 128    1:20   52.4    27    4.2   197      5.8   850.1    0.00       0    65.8
 128    1:30   55.9    26    3.4   195      5.8   850.1    0.00       0    65.8
 128    1:40   56.7    25    3.2   195      3.9   850.1    0.00       0    65.7
 128    1:50   56.9    25    3.7   171      5.0   850.1    0.00       0    65.4
 128    2:00   55.9    25    2.0   170      4.2   850.2    0.00       0    65.3
 128    2:10   53.9    27    0.5   207      3.1   850.2    0.00       0    65.2
 128    2:20   55.7    26    0.4     8      3.7   850.2    0.00       0    65.0
 128    2:30   54.8    26    2.1     3      3.5   850.2    0.00       0    64.9
 128    2:40   54.2    28    2.3   310      3.0   850.0    0.00       0    64.7
 128    2:50   53.7    30    2.2   280      3.5   849.8    0.00       0    64.3
 128    3:00   51.4    30    2.1   274      3.4   849.8    0.00       0    64.7
 128    3:10   50.6    32    2.4   269      4.8   850.0    0.00       0    64.4
 128    3:20   50.5    32    1.3   276      2.9   850.0    0.00       0    64.1
 128    3:30   49.9    33    2.1   240      3.6   849.9    0.00       0    64.1
 128    3:40   49.2    34    1.3   250      2.3   849.8    0.00       0    63.9
 128    3:50   48.1    34    0.0     0      0.0   849.8    0.00       0    63.6
 128    4:00   47.2    34    0.6   189      2.4   849.7    0.00       0    63.6
 128    4:10   47.4    35    3.4   194      4.7   849.7    0.00       0    63.3
 128    4:20   46.5    34    3.1   172      4.9   849.7    0.00       0    63.4
 128    4:30   46.6    35    3.2   210      5.9   849.5    0.00       0    63.1
 128    4:40   46.4    34    4.1   244      6.4   849.6    0.00       2    62.9
 128    4:50   45.4    36    4.7   227      5.8   849.6    0.00       5    62.7
 128    5:00   45.6    37    4.0   199      5.0   849.9    0.00      16    62.7
 128    5:10   46.6    36    3.5   212      5.0   850.4    0.00      38    62.5
 128    5:20   48.4    34    2.7   219      3.7   850.4    0.00      66    62.6
 128    5:30   50.9    33    1.6   242      2.9   850.6    0.00      94    62.2
 128    5:40   53.2    31    2.3   261      3.2   850.9    0.00     119    62.5
 128    5:50   53.8    30    3.1   250      3.7   851.3    0.00     146    62.2
 128    6:00   55.1    30    2.0   227      4.0   851.5    0.00     174    62.1
 128    6:10   55.8    30    2.4   218      3.9   851.8    0.00     202    62.0
 128    6:20   57.9    28    1.7   245      2.9   852.0    0.00     231    62.2
 128    6:30   60.4    26    0.3   206      1.4   852.2    0.00     259    62.2
 128    6:40   61.8    25    0.0   218      0.8   852.4    0.00     286    62.4
 128    6:50   64.2    23    0.5   303      3.8   852.7    0.00     313    62.3
 128    7:00   62.1    24    2.1   340      4.0   852.9    0.00     341    62.6
 128    7:10   62.4    24    2.2   355      3.7   853.1    0.00     369    62.6
 128    7:20   63.8    23    1.5     7      4.5   853.2    0.00     394    62.7
 128    7:30   65.3    21    0.9   347      2.3   853.5    0.00     417    63.1
 128    7:40   67.9    19    0.6   286      3.1   853.5    0.00     441    63.5
 128    7:50   68.5    19    1.7   278      3.6   853.7    0.00     465    63.5
 128    8:00   68.6    19    2.2   280      4.8   853.9    0.00     490    64.5
 128    8:10   70.4    18    2.7   267      4.6   854.0    0.00     514    64.3
 128    8:20   72.1    17    2.5   270      4.7   854.0    0.00     536    64.7
 128    8:30   73.1    17    2.4   255      5.8   854.1    0.00     557    65.0
 128    8:40   75.0    15    1.6   212      5.3   854.2    0.00     577    65.4
 128    8:50   75.5    14    2.0   236      7.5   854.4    0.00     597    65.9
 128    9:00   76.9    14    1.2   221      6.7   854.5    0.00     615    66.4
 128    9:10   78.0    13    1.8   266      5.4   854.6    0.00     633    66.8
 128    9:20   76.9    13    3.0   122      7.0   854.7    0.00     651    67.5
 128    9:30   77.1    13    3.2   359      6.7   854.7    0.00     668    67.8
 128    9:40   77.9    12    3.2   296      6.0   854.7    0.00     684    68.6
 128    9:50   78.7    11    3.8   334     11.7   854.7    0.00     696    68.9
 128   10:00   79.1    11    2.9   341      6.7   854.7    0.00     707    69.5
 128   10:10   80.7    11    1.2   302      5.6   854.7    0.00     717    70.2
 128   10:20   80.1    11    5.5     4     10.0   854.7    0.00     729    71.1
 128   10:30   80.4    10    3.1   272      9.9   854.6    0.00     737    71.5
 128   10:40   80.7    10    8.2   318     15.3   854.5    0.00     745    71.9
 128   10:50   80.1    10    7.8    12     12.7   854.4    0.00     754    73.0
 128   11:00   80.9     9    6.5   285     15.9   854.4    0.00     759    73.6
 128   11:10   82.3     8    8.4   335     16.3   854.2    0.00     762    74.2
 128   11:20   81.9     8    8.2   329     16.2   854.1    0.00     767    74.7
 128   11:30   81.6     8   10.5   326     18.4   854.0    0.00     769    76.1
 128   11:40   82.4     8    7.1   312     14.7   853.9    0.00     769    75.8
 128   11:50   82.0     8    7.6     8     16.8   853.8    0.00     770    76.0
 128   12:00   82.6     8    6.0    24     14.4   853.7    0.00     767    77.1
 128   12:10   83.2     8    5.0   300     11.0   853.4    0.00     761    77.1

Return to St. George, Utah graphs page.


Western Regional Climate Center,wrcc@dri.edu